createdAt,value
2018-12-26T00:00:11.371Z,12.67
2018-12-26T00:03:15.121Z,14.30
2018-12-26T00:06:18.830Z,14.37
2018-12-26T00:09:22.332Z,13.80
2018-12-26T00:12:25.889Z,13.93
2018-12-26T00:15:30.384Z,14.80
2018-12-26T00:18:34.089Z,14.97
2018-12-26T00:21:37.675Z,14.67
2018-12-26T00:24:41.183Z,14.17
2018-12-26T00:27:44.690Z,15.80
2018-12-26T00:30:48.187Z,15.70
2018-12-26T00:33:51.710Z,14.53
2018-12-26T00:36:55.315Z,14.33
2018-12-26T00:39:58.787Z,15.23
2018-12-26T00:43:02.355Z,15.27
2018-12-26T00:46:05.797Z,15.13
2018-12-26T00:49:09.381Z,13.83
2018-12-26T00:52:13.009Z,15.93
2018-12-26T00:55:16.501Z,15.80
2018-12-26T00:58:20.124Z,15.77
2018-12-26T01:01:25.596Z,14.87
2018-12-26T01:04:29.181Z,14.50
2018-12-26T01:07:32.685Z,15.33
2018-12-26T01:10:36.272Z,15.80
2018-12-26T01:13:39.885Z,16.30
2018-12-26T01:16:43.634Z,15.07
2018-12-26T01:19:47.379Z,14.43
2018-12-26T01:22:51.049Z,15.30
2018-12-26T01:25:54.643Z,16.37
2018-12-26T01:28:58.307Z,15.33
2018-12-26T01:32:01.901Z,15.83
2018-12-26T01:35:05.643Z,16.40
2018-12-26T01:38:09.162Z,15.83
2018-12-26T01:41:12.757Z,15.83
2018-12-26T01:44:16.357Z,16.07
2018-12-26T01:47:19.957Z,16.40
2018-12-26T01:50:25.164Z,17.50
2018-12-26T01:53:28.698Z,17.43
2018-12-26T01:56:32.314Z,17.17
2018-12-26T01:59:35.833Z,15.63
2018-12-26T02:02:39.342Z,14.30
2018-12-26T02:05:42.951Z,13.40
2018-12-26T02:08:46.561Z,12.93
2018-12-26T02:11:50.111Z,12.70
2018-12-26T02:14:53.656Z,11.90
2018-12-26T02:17:57.301Z,12.57
2018-12-26T02:21:00.990Z,12.83
2018-12-26T02:24:04.617Z,12.90
2018-12-26T02:27:08.092Z,13.60
2018-12-26T02:30:11.689Z,13.33
2018-12-26T02:33:15.301Z,13.33
2018-12-26T02:36:18.785Z,14.13
2018-12-26T02:39:23.381Z,12.93
2018-12-26T02:42:27.006Z,13.23
2018-12-26T02:45:30.521Z,13.17
2018-12-26T02:48:34.019Z,14.70
2018-12-26T02:51:37.525Z,14.00
2018-12-26T02:54:41.099Z,14.00
2018-12-26T02:57:44.641Z,14.33
2018-12-26T03:00:48.151Z,15.40
2018-12-26T03:03:51.752Z,15.57
2018-12-26T03:06:56.418Z,14.47
2018-12-26T03:09:59.973Z,15.33
2018-12-26T03:13:04.603Z,15.37
2018-12-26T03:16:08.202Z,15.57
2018-12-26T03:19:11.810Z,15.37
2018-12-26T03:22:15.413Z,15.00
2018-12-26T03:25:18.926Z,15.67
2018-12-26T03:28:22.523Z,15.63
2018-12-26T03:31:26.127Z,17.67
2018-12-26T03:34:30.038Z,16.83
2018-12-26T03:37:33.727Z,15.67
2018-12-26T03:40:37.321Z,15.53
2018-12-26T03:43:40.867Z,15.27
2018-12-26T03:46:44.490Z,16.63
2018-12-26T03:49:47.977Z,15.90
2018-12-26T03:52:51.503Z,16.20
2018-12-26T03:56:01.124Z,16.57
2018-12-26T03:59:04.747Z,15.97
2018-12-26T04:02:09.345Z,16.23
2018-12-26T04:05:12.922Z,15.50
2018-12-26T04:08:16.383Z,15.97
2018-12-26T04:11:19.974Z,16.90
2018-12-26T04:14:23.629Z,15.80
2018-12-26T04:17:27.242Z,16.17
2018-12-26T04:20:30.803Z,16.70
2018-12-26T04:23:34.391Z,16.97
2018-12-26T04:26:37.997Z,16.43
2018-12-26T04:29:41.604Z,17.27
2018-12-26T04:32:45.209Z,16.83
2018-12-26T04:35:48.917Z,15.77
2018-12-26T04:38:52.519Z,16.77
2018-12-26T04:41:56.329Z,17.07
2018-12-26T04:44:59.852Z,16.53
2018-12-26T04:48:03.512Z,16.17
2018-12-26T04:51:07.121Z,17.47
2018-12-26T04:54:10.747Z,16.53
2018-12-26T04:57:14.350Z,16.57
2018-12-26T05:00:17.878Z,16.57
2018-12-26T05:03:22.465Z,17.13
2018-12-26T05:06:26.060Z,16.43
2018-12-26T05:09:29.679Z,16.70
2018-12-26T05:12:33.313Z,15.97
2018-12-26T05:15:37.099Z,17.73
2018-12-26T05:18:41.191Z,18.30
2018-12-26T05:21:44.734Z,16.97
2018-12-26T05:24:48.439Z,16.57
2018-12-26T05:27:52.128Z,17.90
2018-12-26T05:30:55.754Z,18.40
2018-12-26T05:33:59.284Z,17.37
2018-12-26T05:37:02.784Z,16.20
2018-12-26T05:40:06.409Z,15.77
2018-12-26T05:43:09.946Z,17.03
2018-12-26T05:46:13.598Z,17.07
2018-12-26T05:49:17.220Z,16.37
2018-12-26T05:52:20.789Z,16.37
2018-12-26T05:55:24.371Z,15.40
2018-12-26T05:58:27.974Z,15.60
2018-12-26T06:01:31.610Z,15.30
2018-12-26T06:04:35.230Z,15.53
2018-12-26T06:07:38.739Z,15.47
2018-12-26T06:10:42.418Z,15.23
2018-12-26T06:13:46.104Z,15.67
2018-12-26T06:16:49.743Z,15.53
2018-12-26T06:19:53.445Z,14.93
2018-12-26T06:22:57.059Z,15.10
2018-12-26T06:26:00.623Z,15.57
2018-12-26T06:29:04.261Z,14.03
2018-12-26T06:32:07.847Z,15.10
2018-12-26T06:35:11.499Z,13.53
2018-12-26T06:38:15.135Z,14.93
2018-12-26T06:41:18.712Z,15.60
2018-12-26T06:44:22.182Z,14.13
2018-12-26T06:47:25.797Z,15.13
2018-12-26T06:50:29.474Z,15.47
2018-12-26T06:53:33.013Z,14.13
2018-12-26T06:56:37.902Z,14.40
2018-12-26T06:59:41.449Z,13.80
2018-12-26T07:02:45.075Z,15.20
2018-12-26T07:05:48.607Z,14.43
2018-12-26T07:08:52.191Z,15.10
2018-12-26T07:11:55.895Z,14.43
2018-12-26T07:14:59.532Z,14.07
2018-12-26T07:18:04.081Z,15.20
2018-12-26T07:21:07.735Z,14.87
2018-12-26T07:24:11.416Z,14.63
2018-12-26T07:27:15.084Z,15.53
2018-12-26T07:30:18.649Z,13.73
2018-12-26T07:33:22.408Z,12.47
2018-12-26T07:36:26.089Z,12.53
2018-12-26T07:39:29.656Z,12.77
2018-12-26T07:42:33.285Z,12.83
2018-12-26T07:45:36.800Z,12.73
2018-12-26T07:48:40.388Z,12.30
2018-12-26T07:51:44.032Z,14.07
2018-12-26T07:54:47.616Z,13.60
2018-12-26T07:57:51.525Z,13.33
2018-12-26T08:00:55.019Z,13.50
2018-12-26T08:03:58.570Z,13.37
2018-12-26T08:07:02.182Z,12.30
2018-12-26T08:10:06.834Z,12.00
2018-12-26T08:13:10.310Z,12.60
2018-12-26T08:16:14.062Z,12.40
2018-12-26T08:19:17.634Z,12.43
2018-12-26T08:22:21.312Z,13.40
2018-12-26T08:25:24.833Z,13.47
2018-12-26T08:28:28.466Z,13.07
2018-12-26T08:31:32.062Z,12.13
2018-12-26T08:34:37.511Z,12.50
2018-12-26T08:37:39.233Z,12.60
2018-12-26T08:40:42.675Z,13.07
2018-12-26T08:43:46.170Z,12.10
2018-12-26T08:46:49.766Z,13.33
2018-12-26T08:49:53.378Z,14.07
2018-12-26T08:52:57.054Z,13.30
2018-12-26T08:56:00.563Z,12.70
2018-12-26T08:59:04.064Z,12.07
2018-12-26T09:02:07.604Z,13.17
2018-12-26T09:05:11.209Z,12.33
2018-12-26T09:08:14.695Z,11.70
2018-12-26T09:11:18.301Z,11.30
2018-12-26T09:14:21.906Z,12.40
2018-12-26T09:17:25.406Z,12.10
2018-12-26T09:20:28.996Z,13.23
2018-12-26T09:23:32.498Z,12.83
2018-12-26T09:26:38.253Z,12.20
2018-12-26T09:29:41.778Z,12.33
2018-12-26T09:32:45.405Z,13.77
2018-12-26T09:35:48.960Z,12.07
2018-12-26T09:38:52.377Z,12.20
2018-12-26T09:41:55.918Z,12.50
2018-12-26T09:44:59.490Z,12.03
2018-12-26T09:48:02.964Z,11.60
2018-12-26T09:51:06.416Z,12.90
2018-12-26T09:54:09.902Z,11.70
2018-12-26T09:57:13.379Z,13.10
2018-12-26T10:00:16.925Z,12.17
2018-12-26T10:03:20.484Z,10.90
2018-12-26T10:06:24.111Z,11.00
2018-12-26T10:09:28.628Z,11.20
2018-12-26T10:12:32.166Z,12.43
2018-12-26T10:15:35.708Z,12.07
2018-12-26T10:18:39.177Z,12.20
2018-12-26T10:21:42.766Z,12.43
2018-12-26T10:24:46.445Z,12.00
2018-12-26T10:27:49.872Z,11.07
2018-12-26T10:30:53.356Z,11.57
2018-12-26T10:33:56.778Z,12.30
2018-12-26T10:37:00.248Z,12.00
2018-12-26T10:40:03.765Z,12.23
2018-12-26T10:43:07.164Z,12.20
2018-12-26T10:46:10.539Z,13.20
2018-12-26T10:49:13.954Z,12.77
2018-12-26T10:52:17.354Z,12.83
2018-12-26T10:55:20.734Z,12.53
2018-12-26T10:58:24.152Z,12.77
2018-12-26T11:01:27.561Z,12.30
2018-12-26T11:04:31.127Z,12.57
2018-12-26T11:07:34.452Z,12.60
2018-12-26T11:10:37.918Z,11.77
2018-12-26T11:13:41.636Z,12.73
2018-12-26T11:16:45.266Z,12.47
2018-12-26T11:19:51.106Z,12.63
2018-12-26T11:22:54.723Z,11.47
2018-12-26T11:25:58.114Z,11.80
2018-12-26T11:29:01.621Z,11.27
2018-12-26T11:32:05.123Z,12.30
2018-12-26T11:35:08.853Z,13.33
2018-12-26T11:38:12.287Z,13.57
2018-12-26T11:41:15.802Z,13.10
2018-12-26T11:44:19.341Z,13.57
2018-12-26T11:47:22.744Z,13.43
2018-12-26T11:50:26.139Z,13.83
2018-12-26T11:53:29.648Z,13.53
2018-12-26T11:56:33.403Z,12.93
2018-12-26T11:59:36.857Z,13.03
2018-12-26T12:02:40.292Z,14.33
2018-12-26T12:05:43.768Z,13.13
2018-12-26T12:08:47.271Z,13.60
2018-12-26T12:11:50.758Z,13.97
2018-12-26T12:14:54.173Z,12.87
2018-12-26T12:17:57.604Z,13.27
2018-12-26T12:21:00.984Z,12.83
2018-12-26T12:24:04.452Z,13.00
2018-12-26T12:27:07.947Z,11.60
2018-12-26T12:30:11.536Z,12.47
2018-12-26T12:33:17.165Z,12.50
2018-12-26T12:36:20.666Z,12.63
2018-12-26T12:39:24.039Z,11.77
2018-12-26T12:42:28.892Z,12.00
2018-12-26T12:45:32.397Z,13.63
2018-12-26T12:48:35.881Z,12.10
2018-12-26T12:51:39.430Z,12.33
2018-12-26T12:54:42.976Z,13.47
2018-12-26T12:57:46.591Z,13.37
2018-12-26T13:00:50.182Z,12.00
2018-12-26T13:03:53.689Z,12.30
2018-12-26T13:06:57.321Z,13.40
2018-12-26T13:10:00.896Z,13.77
2018-12-26T13:13:04.471Z,13.83
2018-12-26T13:16:07.997Z,14.70
2018-12-26T13:19:11.805Z,14.90
2018-12-26T13:22:15.421Z,12.97
2018-12-26T13:25:18.981Z,14.30
2018-12-26T13:28:22.499Z,14.33
2018-12-26T13:31:25.958Z,14.27
2018-12-26T13:34:29.538Z,13.43
2018-12-26T13:37:42.027Z,15.33
2018-12-26T13:40:45.536Z,14.20
2018-12-26T13:43:49.040Z,14.30
2018-12-26T13:46:52.586Z,14.10
2018-12-26T13:49:56.248Z,14.07
2018-12-26T13:52:59.748Z,14.37
2018-12-26T13:56:03.291Z,13.83
2018-12-26T13:59:06.851Z,13.27
2018-12-26T14:02:10.353Z,13.70
2018-12-26T14:05:13.884Z,15.03
2018-12-26T14:08:17.382Z,14.70
2018-12-26T14:11:20.967Z,14.47
2018-12-26T14:14:24.457Z,15.23
2018-12-26T14:17:27.932Z,14.20
2018-12-26T14:20:31.363Z,15.43
2018-12-26T14:23:35.340Z,15.67
2018-12-26T14:26:38.829Z,16.67
2018-12-26T14:29:42.628Z,14.77
2018-12-26T14:32:45.961Z,14.17
2018-12-26T14:35:56.218Z,15.37
2018-12-26T14:38:59.724Z,16.03
2018-12-26T14:42:03.259Z,15.70
2018-12-26T14:45:06.663Z,15.93
2018-12-26T14:48:10.267Z,16.60
2018-12-26T14:51:13.820Z,16.43
2018-12-26T14:54:17.299Z,15.30
2018-12-26T14:57:20.790Z,15.60
2018-12-26T15:00:24.310Z,14.50
2018-12-26T15:03:28.136Z,14.37
2018-12-26T15:06:32.722Z,15.00
2018-12-26T15:09:36.328Z,15.03
2018-12-26T15:12:39.759Z,16.47
2018-12-26T15:15:43.532Z,14.03
2018-12-26T15:18:47.201Z,16.00
2018-12-26T15:21:50.655Z,17.87
2018-12-26T15:24:54.131Z,17.30
2018-12-26T15:27:57.693Z,15.73
2018-12-26T15:31:01.461Z,16.67
2018-12-26T15:34:05.068Z,16.53
2018-12-26T15:37:08.457Z,16.30
2018-12-26T15:40:12.160Z,17.63
2018-12-26T15:43:15.595Z,16.23
2018-12-26T15:46:19.097Z,16.47
2018-12-26T15:49:22.646Z,15.60
2018-12-26T15:52:26.167Z,14.67
2018-12-26T15:55:29.686Z,16.13
2018-12-26T15:58:33.245Z,15.20
2018-12-26T16:01:37.816Z,15.53
2018-12-26T16:04:41.311Z,15.13
2018-12-26T16:07:45.494Z,15.43
2018-12-26T16:10:48.917Z,15.50
2018-12-26T16:13:52.456Z,16.53
2018-12-26T16:16:55.936Z,15.53
2018-12-26T16:19:59.412Z,16.03
2018-12-26T16:23:03.211Z,16.20
2018-12-26T16:26:06.741Z,15.77
2018-12-26T16:29:10.160Z,16.40
2018-12-26T16:32:13.607Z,16.70
2018-12-26T16:35:17.213Z,15.57
2018-12-26T16:38:20.754Z,16.17
2018-12-26T16:41:24.152Z,16.50
2018-12-26T16:44:27.546Z,16.07
2018-12-26T16:47:31.147Z,14.90
2018-12-26T16:50:34.675Z,15.10
2018-12-26T16:53:38.413Z,16.20
2018-12-26T16:56:41.890Z,15.50
2018-12-26T16:59:45.385Z,16.00
2018-12-26T17:02:48.935Z,16.63
2018-12-26T17:05:52.430Z,16.13
2018-12-26T17:08:56.057Z,15.73
2018-12-26T17:11:59.594Z,16.00
2018-12-26T17:15:02.984Z,15.73
2018-12-26T17:18:06.565Z,16.73
2018-12-26T17:21:10.129Z,16.40
2018-12-26T17:24:16.671Z,16.07
2018-12-26T17:27:17.310Z,16.10
2018-12-26T17:30:21.029Z,15.87
2018-12-26T17:33:24.538Z,17.43
2018-12-26T17:36:27.990Z,16.00
2018-12-26T17:39:32.002Z,18.13
2018-12-26T17:42:35.704Z,16.80
2018-12-26T17:45:39.269Z,16.07
2018-12-26T17:48:42.874Z,16.73
2018-12-26T17:51:46.456Z,18.27
2018-12-26T17:56:03.689Z,17.13
2018-12-26T17:59:15.419Z,17.77
2018-12-26T18:02:23.655Z,16.47
2018-12-26T18:05:27.228Z,17.70
2018-12-26T18:08:30.880Z,17.77
2018-12-26T18:11:34.616Z,16.37
2018-12-26T18:14:38.124Z,16.73
2018-12-26T18:17:41.650Z,17.20
2018-12-26T18:20:45.330Z,17.03
2018-12-26T18:23:49.103Z,16.53
2018-12-26T18:26:52.569Z,17.50
2018-12-26T18:29:56.073Z,16.43
2018-12-26T18:32:59.743Z,17.10
2018-12-26T18:36:04.172Z,20.67
2018-12-26T18:39:08.111Z,19.77
2018-12-26T18:42:11.772Z,17.53
2018-12-26T18:45:15.356Z,16.93
2018-12-26T18:48:18.828Z,17.03
2018-12-26T18:51:22.423Z,16.87
2018-12-26T18:54:26.044Z,17.90
2018-12-26T18:57:29.545Z,17.03
2018-12-26T19:00:33.113Z,16.80
2018-12-26T19:03:36.747Z,17.13
2018-12-26T19:06:40.297Z,17.00
2018-12-26T19:09:43.893Z,20.37
2018-12-26T19:12:47.438Z,18.37
2018-12-26T19:15:51.039Z,17.87
2018-12-26T19:18:54.543Z,17.33
2018-12-26T19:21:58.030Z,17.90
2018-12-26T19:25:01.535Z,18.17
2018-12-26T19:28:05.138Z,18.70
2018-12-26T19:31:08.551Z,18.37
2018-12-26T19:34:12.045Z,19.77
2018-12-26T19:37:15.584Z,21.87
2018-12-26T19:40:20.196Z,19.93
2018-12-26T19:43:23.678Z,19.63
2018-12-26T19:46:27.213Z,19.67
2018-12-26T19:49:30.704Z,19.30
2018-12-26T19:52:34.330Z,19.37
2018-12-26T19:55:37.885Z,21.50
2018-12-26T19:58:41.411Z,17.47
2018-12-26T20:01:48.235Z,17.70
2018-12-26T20:04:48.504Z,18.23
2018-12-26T20:07:52.010Z,18.30
2018-12-26T20:10:59.936Z,18.80
2018-12-26T20:14:03.459Z,18.53
2018-12-26T20:17:06.980Z,18.07
2018-12-26T20:20:10.597Z,19.07
2018-12-26T20:23:14.015Z,19.40
2018-12-26T20:26:17.517Z,20.53
2018-12-26T20:29:21.099Z,17.90
2018-12-26T20:32:24.717Z,17.60
2018-12-26T20:35:28.311Z,18.60
2018-12-26T20:38:31.825Z,18.60
2018-12-26T20:41:35.565Z,18.67
2018-12-26T20:44:40.061Z,19.33
2018-12-26T20:47:43.577Z,19.27
2018-12-26T20:50:47.350Z,17.13
2018-12-26T20:53:50.766Z,17.63
2018-12-26T20:56:54.251Z,17.80
2018-12-26T20:59:57.771Z,18.93
2018-12-26T21:03:01.288Z,19.10
2018-12-26T21:06:04.880Z,18.40
2018-12-26T21:09:08.311Z,19.17
2018-12-26T21:12:11.811Z,18.27
2018-12-26T21:15:15.332Z,18.57
2018-12-26T21:18:18.852Z,19.27
2018-12-26T21:21:22.381Z,18.07
2018-12-26T21:24:25.933Z,18.03
2018-12-26T21:27:30.480Z,18.60
2018-12-26T21:30:33.976Z,18.10
2018-12-26T21:33:37.725Z,19.03
2018-12-26T21:36:42.317Z,18.77
2018-12-26T21:39:45.868Z,20.57
2018-12-26T21:42:49.411Z,21.63
2018-12-26T21:45:52.884Z,21.83
2018-12-26T21:48:56.508Z,21.47
2018-12-26T21:52:00.007Z,20.10
2018-12-26T21:55:03.422Z,20.33
2018-12-26T21:58:06.915Z,21.60
2018-12-26T22:01:10.744Z,20.90
2018-12-26T22:04:13.821Z,20.87
2018-12-26T22:07:17.304Z,19.93
2018-12-26T22:10:21.837Z,21.07
2018-12-26T22:13:25.353Z,21.33
2018-12-26T22:16:28.849Z,21.43
2018-12-26T22:19:32.369Z,22.07
2018-12-26T22:22:36.254Z,20.93
2018-12-26T22:25:39.684Z,20.93
2018-12-26T22:28:43.143Z,21.53
2018-12-26T22:31:46.689Z,20.97
2018-12-26T22:34:50.067Z,20.33
2018-12-26T22:37:54.569Z,19.40
2018-12-26T22:40:58.184Z,18.67
2018-12-26T22:44:01.825Z,20.90
2018-12-26T22:47:05.320Z,20.70
2018-12-26T22:50:08.803Z,19.73
2018-12-26T22:53:12.301Z,19.87
2018-12-26T22:56:16.003Z,20.67
2018-12-26T22:59:19.513Z,20.77
2018-12-26T23:02:22.985Z,19.40
2018-12-26T23:05:26.443Z,19.83
2018-12-26T23:08:29.934Z,20.60
2018-12-26T23:11:33.420Z,19.40
2018-12-26T23:14:36.829Z,19.53
2018-12-26T23:17:40.223Z,20.67
2018-12-26T23:20:43.735Z,20.77
2018-12-26T23:23:47.125Z,20.10
2018-12-26T23:26:57.140Z,21.43
2018-12-26T23:30:00.583Z,20.37
2018-12-26T23:33:04.057Z,21.50
2018-12-26T23:36:07.547Z,21.50
2018-12-26T23:39:11.088Z,20.70
2018-12-26T23:42:14.476Z,22.43
2018-12-26T23:45:17.897Z,23.07
2018-12-26T23:48:21.299Z,21.47
2018-12-26T23:51:24.706Z,22.73
2018-12-26T23:54:28.172Z,23.17
2018-12-26T23:57:31.692Z,21.63
